Terminal Aerodrome Forecast
Issued by NWS

Home | Current Version | Previous Version | Graphics & Text | Print | Product List | Glossary On
Versions: 1 2 3 4 5 6 7 8 9 10 11 12 13 14 15 16
000
FTUS43 KMPX 192300
TAFRWF
TAF
KRWF 192339Z 2000/2024 23007KT P6SM SCT040 BKN120
      TEMPO 2000/2003 -SHRA BKN040
     FM200900 29007KT P6SM SCT120 BKN250
     FM202300 30013G20KT P6SM BKN045 OVC080
      TEMPO 2023/2024 2SM TSRA OVC030CB=

USA.gov is the U.S. government's official web portal to all federal, state and local government web resources and services.